| time (UTC) | temp C | wind direction | speed KPH | gust KPH | rain 1hr cm | rain 24hr cm | rain mn cm | humidity % | barometer mb |
| 20260506211515 | 9 | 158 | 1.6 | 3.2 | 0.38 | 1.75 | 1.73 | 96 | 1005.4 |
| 20260506210515 | 9 | 0.0 | 3.2 | 0.36 | 1.73 | 1.65 | 96 | 1005.2 | |
| 20260506205555 | 10 | 0.0 | 3.2 | 0.28 | 1.63 | 1.52 | 95 | 1005.0 | |
| 20260506204515 | 10 | 0.0 | 3.2 | 0.25 | 1.55 | 1.45 | 96 | 1005.0 | |
| 20260506203516 | 10 | 0.0 | 1.6 | 0.20 | 1.52 | 1.40 | 95 | 1005.0 | |
| 20260506202515 | 10 | 113 | 1.6 | 3.2 | 0.20 | 1.57 | 1.40 | 95 | 1004.9 |
| 20260506201515 | 11 | 180 | 1.6 | 6.4 | 0.15 | 1.60 | 1.35 | 96 | 1004.9 |
| 20260506200515 | 11 | 158 | 1.6 | 6.4 | 0.10 | 1.55 | 1.30 | 96 | 1004.7 |
| 20260506195515 | 11 | 0.0 | 1.6 | 0.08 | 1.50 | 1.24 | 95 | 1004.4 | |
| 20260506194517 | 12 | 270 | 1.6 | 4.8 | 0.05 | 1.45 | 1.19 | 95 | 1004.7 |
| 20260506193517 | 12 | 0.0 | 0.0 | 0.10 | 1.45 | 1.19 | 96 | 1004.7 | |
| 20260506192517 | 12 | 0.0 | 0.0 | 0.15 | 1.45 | 1.19 | 96 | 1004.9 | |
| 20260506191517 | 13 | 0.0 | 3.2 | 0.20 | 1.45 | 1.19 | 96 | 1004.9 | |
| 20260506190517 | 14 | 315 | 1.6 | 3.2 | 0.28 | 1.45 | 1.19 | 98 | 1005.0 |
| 20260506185517 | 14 | 0.0 | 0.0 | 0.33 | 1.42 | 1.17 | 98 | 1005.0 | |
| 20260506184537 | 14 | 0.0 | 0.0 | 0.41 | 1.40 | 1.14 | 98 | 1005.1 | |
| 20260506183517 | 14 | 0.0 | 0.0 | 0.43 | 1.35 | 1.09 | 98 | 1005.3 | |
| 20260506182517 | 14 | 0.0 | 0.0 | 0.46 | 1.30 | 1.04 | 98 | 1005.2 | |
| 20260506181517 | 14 | 0.0 | 1.6 | 0.43 | 1.24 | 0.99 | 98 | 1005.3 | |
| 20260506180517 | 13 | 0.0 | 1.6 | 0.38 | 1.17 | 0.91 | 98 | 1005.5 | |
| 20260506175517 | 14 | 0.0 | 1.6 | 0.36 | 1.09 | 0.84 | 98 | 1005.7 | |
| 20260506174518 | 14 | 0.0 | 1.6 | 0.28 | 0.99 | 0.74 | 98 | 1005.7 | |
| 20260506173517 | 14 | 0.0 | 3.2 | 0.23 | 0.91 | 0.66 | 98 | 1005.6 | |
| 20260506172517 | 14 | 0.0 | 3.2 | 0.18 | 0.84 | 0.58 | 98 | 1005.9 | |
| 20260506171517 | 14 | 0.0 | 1.6 | 0.18 | 0.81 | 0.56 | 98 | 1005.9 | |
| 20260506170518 | 13 | 0.0 | 1.6 | 0.18 | 0.79 | 0.53 | 98 | 1005.9 | |
| 20260506165518 | 13 | 0.0 | 3.2 | 0.13 | 0.74 | 0.48 | 98 | 1005.9 | |
| 20260506164537 | 13 | 0.0 | 3.2 | 0.13 | 0.71 | 0.46 | 98 | 1005.8 | |
| 20260506163516 | 13 | 0.0 | 3.2 | 0.10 | 0.69 | 0.43 | 98 | 1006.0 | |
| 20260506162517 | 13 | 0.0 | 1.6 | 0.10 | 0.66 | 0.41 | 98 | 1006.1 | |
| 20260506161536 | 13 | 0.0 | 0.0 | 0.10 | 0.64 | 0.38 | 98 | 1006.2 | |
| 20260506160516 | 13 | 0.0 | 1.6 | 0.10 | 0.61 | 0.36 | 98 | 1006.3 | |
| 20260506155516 | 13 | 0.0 | 1.6 | 0.13 | 0.61 | 0.36 | 98 | 1006.5 | |
| 20260506154517 | 13 | 0.0 | 0.0 | 0.10 | 0.58 | 0.33 | 97 | 1006.8 | |
| 20260506153516 | 13 | 0.0 | 0.0 | 0.13 | 0.58 | 0.33 | 97 | 1006.9 | |
| 20260506152517 | 12 | 0.0 | 0.0 | 0.13 | 0.56 | 0.30 | 98 | 1007.1 | |
| 20260506151516 | 12 | 0.0 | 0.0 | 0.10 | 0.53 | 0.28 | 97 | 1007.3 | |
| 20260506150516 | 12 | 0.0 | 0.0 | 0.08 | 0.51 | 0.25 | 97 | 1007.4 | |
| 20260506145516 | 12 | 0.0 | 0.0 | 0.05 | 0.48 | 0.23 | 97 | 1007.5 | |
| 20260506144517 | 12 | 0.0 | 0.0 | 0.05 | 0.48 | 0.23 | 97 | 1007.4 | |
| 20260506143516 | 12 | 0.0 | 1.6 | 0.03 | 0.46 | 0.20 | 97 | 1007.5 | |
| 20260506142516 | 12 | 0.0 | 0.0 | 0.00 | 0.43 | 0.18 | 97 | 1007.5 | |
| 20260506141536 | 12 | 0.0 | 0.0 | 0.03 | 0.43 | 0.18 | 98 | 1007.5 | |
| 20260506140516 | 12 | 0.0 | 0.0 | 0.03 | 0.43 | 0.18 | 98 | 1007.5 | |
| 20260506135516 | 12 | 0.0 | 0.0 | 0.03 | 0.43 | 0.18 | 98 | 1007.5 | |
| 20260506134520 | 12 | 0.0 | 0.0 | 0.03 | 0.43 | 0.18 | 97 | 1007.5 | |
| 20260506133516 | 12 | 0.0 | 0.0 | 0.03 | 0.43 | 0.18 | 97 | 1007.6 | |
| 20260506132517 | 12 | 0.0 | 1.6 | 0.03 | 0.43 | 0.18 | 97 | 1007.8 | |
| 20260506131516 | 12 | 0.0 | 0.0 | 0.00 | 0.41 | 0.15 | 98 | 1007.7 | |
| 20260506130536 | 12 | 0.0 | 1.6 | 0.00 | 0.41 | 0.15 | 97 | 1008.2 | |
| 20260506125536 | 12 | 0.0 | 1.6 | 0.00 | 0.41 | 0.15 | 97 | 1008.2 | |
| 20260506124516 | 12 | 0.0 | 0.0 | 0.00 | 0.41 | 0.15 | 98 | 1007.9 | |
| 20260506123516 | 12 | 0.0 | 1.6 | 0.00 | 0.41 | 0.15 | 98 | 1007.9 | |
| 20260506122516 | 12 | 0.0 | 0.0 | 0.00 | 0.41 | 0.15 | 97 | 1008.1 | |
| 20260506121516 | 12 | 0.0 | 1.6 | 0.00 | 0.41 | 0.15 | 97 | 1007.9 | |
| 20260506120516 | 12 | 0.0 | 0.0 | 0.00 | 0.41 | 0.15 | 97 | 1008.2 | |
| 20260506115516 | 12 | 0.0 | 0.0 | 0.00 | 0.41 | 0.15 | 97 | 1007.9 | |
| 20260506114516 | 12 | 0.0 | 0.0 | 0.00 | 0.41 | 0.15 | 97 | 1008.0 | |
| 20260506113516 | 12 | 0.0 | 1.6 | 0.00 | 0.41 | 0.15 | 97 | 1008.0 | |
| 20260506112516 | 12 | 0.0 | 0.0 | 0.00 | 0.41 | 0.15 | 97 | 1008.0 | |
| 20260506111516 | 12 | 0.0 | 0.0 | 0.00 | 0.41 | 0.15 | 98 | 1008.3 | |
| 20260506110516 | 12 | 0.0 | 0.0 | 0.00 | 0.41 | 0.15 | 97 | 1008.2 | |
| 20260506105516 | 11 | 0.0 | 0.0 | 0.00 | 0.41 | 0.15 | 97 | 1008.2 | |
| 20260506104515 | 11 | 0.0 | 0.0 | 0.00 | 0.41 | 0.15 | 97 | 1008.2 | |
| 20260506103516 | 11 | 0.0 | 0.0 | 0.00 | 0.41 | 0.15 | 97 | 1008.3 | |
| 20260506102516 | 11 | 0.0 | 0.0 | 0.03 | 0.41 | 0.15 | 97 | 1008.1 | |
| 20260506101516 | 11 | 0.0 | 0.0 | 0.03 | 0.41 | 0.15 | 97 | 1008.2 | |
| 20260506100515 | 11 | 0.0 | 0.0 | 0.03 | 0.41 | 0.15 | 97 | 1008.3 | |
| 20260506095515 | 11 | 0.0 | 0.0 | 0.03 | 0.41 | 0.15 | 97 | 1008.2 | |
| 20260506094515 | 11 | 0.0 | 0.0 | 0.03 | 0.41 | 0.15 | 97 | 1008.3 | |
| 20260506093515 | 12 | 0.0 | 0.0 | 0.03 | 0.41 | 0.15 | 96 | 1008.2 | |
| 20260506092516 | 12 | 0.0 | 0.0 | 0.00 | 0.38 | 0.13 | 97 | 1008.1 | |
| 20260506091516 | 12 | 0.0 | 0.0 | 0.00 | 0.38 | 0.13 | 97 | 1008.5 | |
| 20260506090515 | 12 | 0.0 | 0.0 | 0.00 | 0.38 | 0.13 | 97 | 1008.6 | |
| 20260506085516 | 12 | 0.0 | 3.2 | 0.00 | 0.38 | 0.13 | 97 | 1008.7 | |
| 20260506084515 | 12 | 0.0 | 0.0 | 0.00 | 0.38 | 0.13 | 97 | 1008.9 | |
| 20260506083515 | 12 | 0.0 | 0.0 | 0.00 | 0.38 | 0.13 | 97 | 1008.9 | |
| 20260506082515 | 12 | 0.0 | 0.0 | 0.00 | 0.38 | 0.13 | 97 | 1009.2 | |
| 20260506081515 | 12 | 0.0 | 0.0 | 0.00 | 0.38 | 0.13 | 97 | 1008.9 | |
| 20260506080516 | 12 | 0.0 | 0.0 | 0.00 | 0.38 | 0.13 | 97 | 1009.0 | |
| 20260506073515 | 12 | 0.0 | 1.6 | 0.00 | 0.38 | 0.13 | 97 | 1009.0 | |
| 20260506072515 | 12 | 0.0 | 3.2 | 0.00 | 0.38 | 0.13 | 97 | 1009.4 | |
| 20260506071516 | 12 | 0.0 | 0.0 | 0.00 | 0.38 | 0.13 | 97 | 1009.4 | |
| 20260506070515 | 12 | 0.0 | 1.6 | 0.00 | 0.38 | 0.13 | 97 | 1009.0 | |
| 20260506062515 | 13 | 203 | 1.6 | 3.2 | 0.00 | 0.38 | 0.13 | 96 | 1009.4 |
| 20260506061515 | 13 | 0.0 | 0.0 | 0.00 | 0.38 | 0.13 | 96 | 1009.9 | |
| 20260506060515 | 13 | 0.0 | 1.6 | 0.05 | 0.38 | 0.13 | 96 | 1009.7 | |
| 20260506050515 | 14 | 203 | 1.6 | 3.2 | 0.08 | 0.33 | 0.08 | 95 | 1009.1 |
| 20260506044517 | 13 | 0.0 | 1.6 | 0.05 | 0.30 | 0.05 | 94 | 1008.8 | |
| 20260506043517 | 13 | 0.0 | 0.0 | 0.00 | 0.25 | 0.00 | 94 | 1008.5 | |
| 20260506042517 | 13 | 0.0 | 0.0 | 0.00 | 0.25 | 0.00 | 94 | 1008.4 | |
| 20260506041517 | 13 | 0.0 | 0.0 | 0.00 | 0.25 | 0.00 | 95 | 1008.1 | |
| 20260506040516 | 13 | 0.0 | 0.0 | 0.00 | 0.25 | 0.00 | 94 | 1008.0 | |
| 20260506035516 | 13 | 0.0 | 0.0 | 0.00 | 0.25 | 0.25 | 95 | 1008.0 | |
| 20260506034555 | 13 | 0.0 | 0.0 | 0.00 | 0.25 | 0.25 | 95 | 1007.7 | |
| 20260506033515 | 13 | 0.0 | 1.6 | 0.00 | 0.25 | 0.25 | 95 | 1007.8 | |
| 20260506032515 | 13 | 0.0 | 0.0 | 0.00 | 0.25 | 0.25 | 95 | 1007.6 | |
| 20260506031535 | 13 | 0.0 | 1.6 | 0.00 | 0.25 | 0.25 | 95 | 1007.5 | |
| 20260506030515 | 13 | 0.0 | 3.2 | 0.00 | 0.25 | 0.25 | 96 | 1007.9 | |
| 20260506025515 | 13 | 0.0 | 3.2 | 0.00 | 0.25 | 0.25 | 96 | 1007.9 | |
| 20260506024515 | 13 | 0.0 | 3.2 | 0.00 | 0.25 | 0.25 | 96 | 1007.7 | |
| 20260506023535 | 13 | 0.0 | 3.2 | 0.00 | 0.25 | 0.25 | 96 | 1007.8 | |
| 20260506022515 | 13 | 0.0 | 1.6 | 0.00 | 0.25 | 0.25 | 95 | 1007.4 | |
| 20260506021555 | 13 | 0.0 | 0.0 | 0.00 | 0.25 | 0.25 | 95 | 1007.4 | |
| 20260506020535 | 13 | 0.0 | 1.6 | 0.00 | 0.25 | 0.25 | 95 | 1007.4 | |
| 20260506015515 | 13 | 0.0 | 1.6 | 0.00 | 0.25 | 0.25 | 95 | 1007.4 | |
| 20260506014555 | 13 | 0.0 | 3.2 | 0.00 | 0.25 | 0.25 | 94 | 1007.4 | |
| 20260506013515 | 14 | 0.0 | 1.6 | 0.00 | 0.25 | 0.25 | 95 | 1007.2 | |
| 20260506012517 | 14 | 0.0 | 1.6 | 0.00 | 0.25 | 0.25 | 95 | 1007.4 | |
| 20260506011517 | 14 | 0.0 | 1.6 | 0.00 | 0.25 | 0.25 | 95 | 1007.3 | |
| 20260506010537 | 14 | 0.0 | 0.0 | 0.00 | 0.25 | 0.25 | 95 | 1007.1 | |
| 20260506005517 | 14 | 0.0 | 1.6 | 0.00 | 0.25 | 0.25 | 95 | 1007.1 | |
| 20260506004518 | 15 | 0.0 | 4.8 | 0.00 | 0.25 | 0.25 | 95 | 1006.9 |